St Mary's Airport
PASM : now visible

Aeroporto :











RITROVATECI SU...

 
LOGIN :

Iscrizione | Disclaimer

   EN    FR    IT 

 









Sommario :    VFR   VFR Marginale   IFR   IFR Intensivo   IFR Molto Intensivo
Visibilità : 
Base nubi : 
>= 8 km
>= 3000ft
5 / 8 km
1000 / 3000 ft
1500m / 5 km
500 / 1000 ft
800 / 1500m
200 / 500 ft
< 800m
< 200 ft
Simboli :   Temporali  Nebbia  Neve Forte  Precipitazioni Forti  Vento > 20 kt






- Altitudine del aeroporto : 312 ft
- Codice IATA : KSM


PASM - St Mary's

ULTIMO METAR :
  • 031949Z AUTO 15008G15KT 1 1/4SM -SN BR OVC002 M01/M01 A3003 RMK AO2 P0000 FZRANO

METARs OBSOLETI :
  • 031928Z AUTO 16009G15KT 3/4SM -SN BR OVC002 M01/M01 A3004 RMK AO2 P0000 FZRANO
  • 031923Z AUTO 16011G15KT 1 1/4SM -SN BR OVC002 M01/M01 A3004 RMK AO2 P0000 FZRANO
  • 031856Z AUTO 16008KT 3/4SM -SN BR OVC002 M01/M01 A3005 RMK AO2 UPB22E27SNB27 SLP187 P0000 T10061006 FZRANO
  • 031756Z AUTO 18010KT 1/4SM FZFG OVC002 M01/M01 A3007 RMK AO2 SLP191 60000 T10061006 10000 21006 58003 FZRANO

TAF N/A



MetMap, La meteo Aeronautica in un colpo d'occhio ! - Copyright ORBIFLY Dicembre 2007 - Disclaimer

ORBIFLY MET'MAP TEAM :

Programmazione e sviluppo : Alexandra Zaïnal
Concezione : Baudouin d'Aumeries
Aiuto per la programmazione : Marc-Olivier Méhu
Supporto tecnico e logistico : Manuel Goepfert
Aiuto per la traduzione : Arnaldo La Scala

Contatto : metmap@orbifly.com




FONTI E CREDITI :

   NOAA       Earth
Advisory